sensor_id;sensor_type;location;lat;lon;timestamp;P1;durP1;ratioP1;P2;durP2;ratioP2
35961;SDS011;22044;48.298;10.008;2022-10-18T00:00:22;5.63;;;4.50;;
35961;SDS011;22044;48.298;10.008;2022-10-18T00:03:07;7.17;;;4.67;;
35961;SDS011;22044;48.298;10.008;2022-10-18T00:05:53;7.10;;;4.10;;
35961;SDS011;22044;48.298;10.008;2022-10-18T00:08:38;9.53;;;4.87;;
35961;SDS011;22044;48.298;10.008;2022-10-18T00:11:24;7.27;;;4.30;;
35961;SDS011;22044;48.298;10.008;2022-10-18T00:14:10;6.13;;;4.20;;
35961;SDS011;22044;48.298;10.008;2022-10-18T00:16:57;10.67;;;4.33;;
35961;SDS011;22044;48.298;10.008;2022-10-18T00:19:42;8.23;;;4.07;;
35961;SDS011;22044;48.298;10.008;2022-10-18T00:22:29;7.07;;;3.27;;
35961;SDS011;22044;48.298;10.008;2022-10-18T00:25:15;7.67;;;4.13;;
35961;SDS011;22044;48.298;10.008;2022-10-18T00:28:00;8.93;;;3.30;;
35961;SDS011;22044;48.298;10.008;2022-10-18T00:30:46;9.93;;;3.50;;
35961;SDS011;22044;48.298;10.008;2022-10-18T00:33:33;9.27;;;4.10;;
35961;SDS011;22044;48.298;10.008;2022-10-18T00:36:19;6.00;;;3.77;;
35961;SDS011;22044;48.298;10.008;2022-10-18T00:39:05;9.53;;;4.60;;
35961;SDS011;22044;48.298;10.008;2022-10-18T00:41:52;9.03;;;4.20;;
35961;SDS011;22044;48.298;10.008;2022-10-18T00:45:00;9.13;;;4.80;;
35961;SDS011;22044;48.298;10.008;2022-10-18T00:47:50;7.23;;;4.53;;
35961;SDS011;22044;48.298;10.008;2022-10-18T00:50:41;5.93;;;4.03;;
35961;SDS011;22044;48.298;10.008;2022-10-18T00:53:27;6.90;;;4.40;;
35961;SDS011;22044;48.298;10.008;2022-10-18T00:56:13;8.20;;;4.70;;
35961;SDS011;22044;48.298;10.008;2022-10-18T00:59:01;5.40;;;4.50;;
35961;SDS011;22044;48.298;10.008;2022-10-18T01:01:47;6.10;;;4.50;;
35961;SDS011;22044;48.298;10.008;2022-10-18T01:04:32;5.07;;;4.50;;
35961;SDS011;22044;48.298;10.008;2022-10-18T01:07:25;5.40;;;3.97;;
35961;SDS011;22044;48.298;10.008;2022-10-18T01:10:20;7.53;;;4.73;;
35961;SDS011;22044;48.298;10.008;2022-10-18T01:13:17;5.30;;;4.40;;
35961;SDS011;22044;48.298;10.008;2022-10-18T01:16:15;15.37;;;4.20;;
35961;SDS011;22044;48.298;10.008;2022-10-18T01:19:06;7.00;;;4.07;;
35961;SDS011;22044;48.298;10.008;2022-10-18T01:22:06;7.20;;;4.30;;
35961;SDS011;22044;48.298;10.008;2022-10-18T01:25:13;5.17;;;4.27;;
35961;SDS011;22044;48.298;10.008;2022-10-18T01:28:12;5.87;;;4.63;;
35961;SDS011;22044;48.298;10.008;2022-10-18T01:31:08;8.50;;;4.50;;
35961;SDS011;22044;48.298;10.008;2022-10-18T01:33:58;6.47;;;4.80;;
35961;SDS011;22044;48.298;10.008;2022-10-18T01:36:47;6.53;;;4.60;;
35961;SDS011;22044;48.298;10.008;2022-10-18T01:39:36;7.73;;;5.13;;
35961;SDS011;22044;48.298;10.008;2022-10-18T01:42:24;7.63;;;5.20;;
35961;SDS011;22044;48.298;10.008;2022-10-18T01:45:11;7.57;;;5.33;;
35961;SDS011;22044;48.298;10.008;2022-10-18T01:48:00;12.80;;;5.03;;
35961;SDS011;22044;48.298;10.008;2022-10-18T01:50:46;8.53;;;5.30;;
35961;SDS011;22044;48.298;10.008;2022-10-18T01:53:33;10.10;;;4.87;;
35961;SDS011;22044;48.298;10.008;2022-10-18T01:56:20;9.10;;;4.60;;
35961;SDS011;22044;48.298;10.008;2022-10-18T01:59:19;6.87;;;4.73;;
35961;SDS011;22044;48.298;10.008;2022-10-18T02:02:16;4.77;;;4.00;;
35961;SDS011;22044;48.298;10.008;2022-10-18T02:05:13;7.30;;;4.50;;
35961;SDS011;22044;48.298;10.008;2022-10-18T02:08:07;7.03;;;3.87;;
35961;SDS011;22044;48.298;10.008;2022-10-18T02:11:03;13.57;;;5.23;;
35961;SDS011;22044;48.298;10.008;2022-10-18T02:13:52;13.13;;;4.90;;
35961;SDS011;22044;48.298;10.008;2022-10-18T02:16:41;7.60;;;4.83;;
35961;SDS011;22044;48.298;10.008;2022-10-18T02:19:29;8.90;;;5.53;;
35961;SDS011;22044;48.298;10.008;2022-10-18T02:22:21;9.27;;;6.63;;
35961;SDS011;22044;48.298;10.008;2022-10-18T02:25:12;12.23;;;7.00;;
35961;SDS011;22044;48.298;10.008;2022-10-18T02:28:02;8.23;;;6.37;;
35961;SDS011;22044;48.298;10.008;2022-10-18T02:30:50;8.90;;;8.00;;
35961;SDS011;22044;48.298;10.008;2022-10-18T02:33:43;9.70;;;7.27;;
35961;SDS011;22044;48.298;10.008;2022-10-18T02:36:35;9.03;;;6.20;;
35961;SDS011;22044;48.298;10.008;2022-10-18T02:39:26;9.27;;;5.63;;
35961;SDS011;22044;48.298;10.008;2022-10-18T02:42:14;8.93;;;5.30;;
35961;SDS011;22044;48.298;10.008;2022-10-18T02:44:59;6.77;;;5.97;;
35961;SDS011;22044;48.298;10.008;2022-10-18T02:47:45;11.67;;;5.90;;
35961;SDS011;22044;48.298;10.008;2022-10-18T02:50:30;9.07;;;6.40;;
35961;SDS011;22044;48.298;10.008;2022-10-18T02:53:16;10.30;;;7.30;;
35961;SDS011;22044;48.298;10.008;2022-10-18T02:56:06;11.00;;;7.50;;
35961;SDS011;22044;48.298;10.008;2022-10-18T02:58:52;9.57;;;8.17;;
35961;SDS011;22044;48.298;10.008;2022-10-18T03:01:38;9.70;;;8.33;;
35961;SDS011;22044;48.298;10.008;2022-10-18T03:04:31;11.23;;;7.93;;
35961;SDS011;22044;48.298;10.008;2022-10-18T03:07:19;8.80;;;7.87;;
35961;SDS011;22044;48.298;10.008;2022-10-18T03:10:05;16.10;;;8.37;;
35961;SDS011;22044;48.298;10.008;2022-10-18T03:12:53;15.57;;;9.87;;
35961;SDS011;22044;48.298;10.008;2022-10-18T03:15:38;10.57;;;9.50;;
35961;SDS011;22044;48.298;10.008;2022-10-18T03:18:24;17.20;;;9.40;;
35961;SDS011;22044;48.298;10.008;2022-10-18T03:21:10;13.63;;;9.67;;
35961;SDS011;22044;48.298;10.008;2022-10-18T03:23:55;13.13;;;10.53;;
35961;SDS011;22044;48.298;10.008;2022-10-18T03:26:42;13.67;;;9.27;;
35961;SDS011;22044;48.298;10.008;2022-10-18T03:29:29;11.37;;;8.23;;
35961;SDS011;22044;48.298;10.008;2022-10-18T03:32:15;13.73;;;9.80;;
35961;SDS011;22044;48.298;10.008;2022-10-18T03:35:00;11.80;;;8.53;;
35961;SDS011;22044;48.298;10.008;2022-10-18T03:37:46;13.30;;;9.27;;
35961;SDS011;22044;48.298;10.008;2022-10-18T03:40:31;10.40;;;7.90;;
35961;SDS011;22044;48.298;10.008;2022-10-18T03:43:17;10.73;;;8.53;;
35961;SDS011;22044;48.298;10.008;2022-10-18T03:46:04;11.70;;;8.57;;
35961;SDS011;22044;48.298;10.008;2022-10-18T03:48:50;10.97;;;8.13;;
35961;SDS011;22044;48.298;10.008;2022-10-18T03:51:36;9.63;;;8.30;;
35961;SDS011;22044;48.298;10.008;2022-10-18T03:54:21;13.90;;;9.33;;
35961;SDS011;22044;48.298;10.008;2022-10-18T03:57:07;13.60;;;8.03;;
35961;SDS011;22044;48.298;10.008;2022-10-18T03:59:52;10.93;;;8.67;;
35961;SDS011;22044;48.298;10.008;2022-10-18T04:02:40;12.70;;;7.73;;
35961;SDS011;22044;48.298;10.008;2022-10-18T04:05:25;9.37;;;8.30;;
35961;SDS011;22044;48.298;10.008;2022-10-18T04:08:13;11.83;;;8.03;;
35961;SDS011;22044;48.298;10.008;2022-10-18T04:11:02;9.23;;;8.13;;
35961;SDS011;22044;48.298;10.008;2022-10-18T04:13:51;13.20;;;7.67;;
35961;SDS011;22044;48.298;10.008;2022-10-18T04:16:36;9.53;;;7.80;;
35961;SDS011;22044;48.298;10.008;2022-10-18T04:19:23;8.70;;;7.80;;
35961;SDS011;22044;48.298;10.008;2022-10-18T04:22:10;8.50;;;7.47;;
35961;SDS011;22044;48.298;10.008;2022-10-18T04:24:56;8.17;;;7.37;;
35961;SDS011;22044;48.298;10.008;2022-10-18T04:27:41;9.83;;;7.90;;
35961;SDS011;22044;48.298;10.008;2022-10-18T04:30:27;18.07;;;8.17;;
35961;SDS011;22044;48.298;10.008;2022-10-18T04:33:13;16.53;;;7.70;;
35961;SDS011;22044;48.298;10.008;2022-10-18T04:36:00;9.63;;;8.03;;
35961;SDS011;22044;48.298;10.008;2022-10-18T04:38:46;9.87;;;8.33;;
35961;SDS011;22044;48.298;10.008;2022-10-18T04:41:32;16.37;;;8.63;;
35961;SDS011;22044;48.298;10.008;2022-10-18T04:44:17;9.60;;;8.10;;
35961;SDS011;22044;48.298;10.008;2022-10-18T04:47:03;11.60;;;7.90;;
35961;SDS011;22044;48.298;10.008;2022-10-18T04:49:49;9.47;;;8.03;;
35961;SDS011;22044;48.298;10.008;2022-10-18T04:52:36;10.30;;;8.40;;
35961;SDS011;22044;48.298;10.008;2022-10-18T04:55:22;10.53;;;9.50;;
35961;SDS011;22044;48.298;10.008;2022-10-18T04:58:07;11.43;;;9.67;;
35961;SDS011;22044;48.298;10.008;2022-10-18T05:00:53;10.57;;;7.93;;
35961;SDS011;22044;48.298;10.008;2022-10-18T05:03:38;10.70;;;8.40;;
35961;SDS011;22044;48.298;10.008;2022-10-18T05:06:24;11.17;;;8.17;;
35961;SDS011;22044;48.298;10.008;2022-10-18T05:09:11;12.50;;;8.60;;
35961;SDS011;22044;48.298;10.008;2022-10-18T05:11:59;8.97;;;8.07;;
35961;SDS011;22044;48.298;10.008;2022-10-18T05:14:45;13.67;;;8.90;;
35961;SDS011;22044;48.298;10.008;2022-10-18T05:17:31;9.70;;;8.70;;
35961;SDS011;22044;48.298;10.008;2022-10-18T05:20:16;14.43;;;10.13;;
35961;SDS011;22044;48.298;10.008;2022-10-18T05:23:02;13.97;;;9.67;;
35961;SDS011;22044;48.298;10.008;2022-10-18T05:25:49;10.97;;;9.20;;
35961;SDS011;22044;48.298;10.008;2022-10-18T05:28:35;10.10;;;9.10;;
35961;SDS011;22044;48.298;10.008;2022-10-18T05:31:21;12.53;;;8.93;;
35961;SDS011;22044;48.298;10.008;2022-10-18T05:34:06;11.87;;;10.10;;
35961;SDS011;22044;48.298;10.008;2022-10-18T05:36:52;10.90;;;9.40;;
35961;SDS011;22044;48.298;10.008;2022-10-18T05:39:38;13.73;;;9.60;;
35961;SDS011;22044;48.298;10.008;2022-10-18T05:42:25;13.70;;;10.30;;
35961;SDS011;22044;48.298;10.008;2022-10-18T05:45:10;13.77;;;10.50;;
35961;SDS011;22044;48.298;10.008;2022-10-18T05:47:56;11.67;;;10.03;;
35961;SDS011;22044;48.298;10.008;2022-10-18T05:50:41;13.30;;;8.97;;
35961;SDS011;22044;48.298;10.008;2022-10-18T05:53:27;11.27;;;9.03;;
35961;SDS011;22044;48.298;10.008;2022-10-18T05:56:13;12.53;;;9.17;;
35961;SDS011;22044;48.298;10.008;2022-10-18T05:59:00;11.40;;;10.03;;
35961;SDS011;22044;48.298;10.008;2022-10-18T06:01:48;17.37;;;10.53;;
35961;SDS011;22044;48.298;10.008;2022-10-18T06:04:33;12.90;;;9.80;;
35961;SDS011;22044;48.298;10.008;2022-10-18T06:07:19;14.03;;;10.60;;
35961;SDS011;22044;48.298;10.008;2022-10-18T06:10:05;15.43;;;10.53;;
35961;SDS011;22044;48.298;10.008;2022-10-18T06:12:51;14.57;;;9.60;;
35961;SDS011;22044;48.298;10.008;2022-10-18T06:15:38;11.57;;;8.93;;
35961;SDS011;22044;48.298;10.008;2022-10-18T06:18:23;11.07;;;9.27;;
35961;SDS011;22044;48.298;10.008;2022-10-18T06:21:11;14.43;;;10.53;;
35961;SDS011;22044;48.298;10.008;2022-10-18T06:23:58;12.10;;;9.37;;
35961;SDS011;22044;48.298;10.008;2022-10-18T06:26:44;10.80;;;9.53;;
35961;SDS011;22044;48.298;10.008;2022-10-18T06:29:29;15.37;;;10.87;;
35961;SDS011;22044;48.298;10.008;2022-10-18T06:32:16;13.30;;;10.47;;
35961;SDS011;22044;48.298;10.008;2022-10-18T06:35:04;12.17;;;10.43;;
35961;SDS011;22044;48.298;10.008;2022-10-18T06:37:50;15.97;;;10.53;;
35961;SDS011;22044;48.298;10.008;2022-10-18T06:40:36;18.93;;;12.40;;
35961;SDS011;22044;48.298;10.008;2022-10-18T06:43:22;21.23;;;11.63;;
35961;SDS011;22044;48.298;10.008;2022-10-18T06:46:07;17.67;;;11.93;;
35961;SDS011;22044;48.298;10.008;2022-10-18T06:48:55;14.37;;;11.30;;
35961;SDS011;22044;48.298;10.008;2022-10-18T06:51:40;20.10;;;12.33;;
35961;SDS011;22044;48.298;10.008;2022-10-18T06:54:26;16.40;;;11.10;;
35961;SDS011;22044;48.298;10.008;2022-10-18T06:57:11;20.27;;;12.70;;
35961;SDS011;22044;48.298;10.008;2022-10-18T06:59:57;16.67;;;12.43;;
35961;SDS011;22044;48.298;10.008;2022-10-18T07:02:43;20.87;;;13.60;;
35961;SDS011;22044;48.298;10.008;2022-10-18T07:05:31;20.03;;;13.30;;
35961;SDS011;22044;48.298;10.008;2022-10-18T07:08:16;23.67;;;12.97;;
35961;SDS011;22044;48.298;10.008;2022-10-18T07:11:02;25.80;;;12.80;;
35961;SDS011;22044;48.298;10.008;2022-10-18T07:13:48;17.77;;;13.43;;
35961;SDS011;22044;48.298;10.008;2022-10-18T07:16:34;20.20;;;13.57;;
35961;SDS011;22044;48.298;10.008;2022-10-18T07:19:20;27.60;;;14.40;;
35961;SDS011;22044;48.298;10.008;2022-10-18T07:22:06;18.90;;;13.00;;
35961;SDS011;22044;48.298;10.008;2022-10-18T07:24:52;18.60;;;12.73;;
35961;SDS011;22044;48.298;10.008;2022-10-18T07:27:38;20.53;;;12.13;;
35961;SDS011;22044;48.298;10.008;2022-10-18T07:30:25;21.57;;;13.27;;
35961;SDS011;22044;48.298;10.008;2022-10-18T07:33:11;21.23;;;13.37;;
35961;SDS011;22044;48.298;10.008;2022-10-18T07:35:59;16.17;;;12.37;;
35961;SDS011;22044;48.298;10.008;2022-10-18T07:38:46;26.43;;;11.97;;
35961;SDS011;22044;48.298;10.008;2022-10-18T07:41:32;27.97;;;12.90;;
35961;SDS011;22044;48.298;10.008;2022-10-18T07:44:17;20.87;;;11.33;;
35961;SDS011;22044;48.298;10.008;2022-10-18T07:47:05;19.57;;;11.53;;
35961;SDS011;22044;48.298;10.008;2022-10-18T07:49:51;17.50;;;11.70;;
35961;SDS011;22044;48.298;10.008;2022-10-18T07:52:36;13.83;;;10.53;;
35961;SDS011;22044;48.298;10.008;2022-10-18T07:55:24;12.20;;;9.87;;
35961;SDS011;22044;48.298;10.008;2022-10-18T07:58:09;18.03;;;10.20;;
35961;SDS011;22044;48.298;10.008;2022-10-18T08:00:55;11.90;;;9.10;;
35961;SDS011;22044;48.298;10.008;2022-10-18T08:03:41;14.00;;;10.47;;
35961;SDS011;22044;48.298;10.008;2022-10-18T08:06:29;14.83;;;9.90;;
35961;SDS011;22044;48.298;10.008;2022-10-18T08:09:15;15.47;;;10.60;;
35961;SDS011;22044;48.298;10.008;2022-10-18T08:12:02;16.23;;;10.37;;
35961;SDS011;22044;48.298;10.008;2022-10-18T08:14:47;14.20;;;9.17;;
35961;SDS011;22044;48.298;10.008;2022-10-18T08:17:33;14.43;;;8.73;;
35961;SDS011;22044;48.298;10.008;2022-10-18T08:20:18;13.35;;;8.00;;
35961;SDS011;22044;48.298;10.008;2022-10-18T08:23:04;8.45;;;7.53;;
35961;SDS011;22044;48.298;10.008;2022-10-18T08:25:51;8.23;;;6.63;;
35961;SDS011;22044;48.298;10.008;2022-10-18T08:28:38;7.68;;;6.20;;
35961;SDS011;22044;48.298;10.008;2022-10-18T08:31:24;11.93;;;6.78;;
35961;SDS011;22044;48.298;10.008;2022-10-18T08:34:09;10.10;;;6.47;;
35961;SDS011;22044;48.298;10.008;2022-10-18T08:36:55;11.50;;;5.97;;
35961;SDS011;22044;48.298;10.008;2022-10-18T08:39:40;12.45;;;6.30;;
35961;SDS011;22044;48.298;10.008;2022-10-18T08:42:34;10.52;;;5.45;;
35961;SDS011;22044;48.298;10.008;2022-10-18T08:45:33;8.63;;;6.25;;
35961;SDS011;22044;48.298;10.008;2022-10-18T08:48:26;9.60;;;5.68;;
35961;SDS011;22044;48.298;10.008;2022-10-18T08:51:20;8.55;;;6.03;;
35961;SDS011;22044;48.298;10.008;2022-10-18T08:54:11;14.30;;;6.03;;
35961;SDS011;22044;48.298;10.008;2022-10-18T08:56:58;9.02;;;6.10;;
35961;SDS011;22044;48.298;10.008;2022-10-18T08:59:45;9.75;;;5.70;;
35961;SDS011;22044;48.298;10.008;2022-10-18T09:02:35;10.48;;;6.00;;
35961;SDS011;22044;48.298;10.008;2022-10-18T09:05:30;15.40;;;6.47;;
35961;SDS011;22044;48.298;10.008;2022-10-18T09:08:32;10.73;;;6.22;;
35961;SDS011;22044;48.298;10.008;2022-10-18T09:11:40;10.68;;;6.13;;
35961;SDS011;22044;48.298;10.008;2022-10-18T09:14:39;7.20;;;5.53;;
35961;SDS011;22044;48.298;10.008;2022-10-18T09:17:37;10.23;;;5.75;;
35961;SDS011;22044;48.298;10.008;2022-10-18T09:20:35;11.15;;;6.43;;
35961;SDS011;22044;48.298;10.008;2022-10-18T09:23:30;9.45;;;6.20;;
35961;SDS011;22044;48.298;10.008;2022-10-18T09:26:27;13.02;;;6.55;;
35961;SDS011;22044;48.298;10.008;2022-10-18T09:29:23;10.48;;;5.43;;
35961;SDS011;22044;48.298;10.008;2022-10-18T09:32:33;7.43;;;5.65;;
35961;SDS011;22044;48.298;10.008;2022-10-18T09:35:29;6.97;;;5.90;;
35961;SDS011;22044;48.298;10.008;2022-10-18T09:38:23;7.25;;;5.78;;
35961;SDS011;22044;48.298;10.008;2022-10-18T09:41:15;7.00;;;5.43;;
35961;SDS011;22044;48.298;10.008;2022-10-18T09:44:04;11.05;;;5.78;;
35961;SDS011;22044;48.298;10.008;2022-10-18T09:46:56;8.90;;;6.03;;
35961;SDS011;22044;48.298;10.008;2022-10-18T09:49:47;12.32;;;6.30;;
35961;SDS011;22044;48.298;10.008;2022-10-18T09:52:40;8.63;;;4.43;;
35961;SDS011;22044;48.298;10.008;2022-10-18T09:55:29;7.00;;;4.78;;
35961;SDS011;22044;48.298;10.008;2022-10-18T09:58:22;6.68;;;4.78;;
35961;SDS011;22044;48.298;10.008;2022-10-18T10:01:12;9.80;;;5.18;;
35961;SDS011;22044;48.298;10.008;2022-10-18T10:04:00;7.40;;;5.07;;
35961;SDS011;22044;48.298;10.008;2022-10-18T10:06:49;9.15;;;5.32;;
35961;SDS011;22044;48.298;10.008;2022-10-18T10:09:38;8.25;;;5.25;;
35961;SDS011;22044;48.298;10.008;2022-10-18T10:12:29;10.45;;;5.78;;
35961;SDS011;22044;48.298;10.008;2022-10-18T10:15:17;8.35;;;5.45;;
35961;SDS011;22044;48.298;10.008;2022-10-18T10:18:07;9.60;;;4.70;;
35961;SDS011;22044;48.298;10.008;2022-10-18T10:21:03;5.97;;;5.03;;
35961;SDS011;22044;48.298;10.008;2022-10-18T10:23:52;7.03;;;4.55;;
35961;SDS011;22044;48.298;10.008;2022-10-18T10:26:41;13.55;;;5.00;;
35961;SDS011;22044;48.298;10.008;2022-10-18T10:29:46;6.72;;;4.43;;
35961;SDS011;22044;48.298;10.008;2022-10-18T10:32:44;8.02;;;4.80;;
35961;SDS011;22044;48.298;10.008;2022-10-18T10:35:31;9.93;;;4.30;;
35961;SDS011;22044;48.298;10.008;2022-10-18T10:38:21;5.25;;;4.03;;
35961;SDS011;22044;48.298;10.008;2022-10-18T10:41:16;6.93;;;4.47;;
35961;SDS011;22044;48.298;10.008;2022-10-18T10:44:14;5.50;;;4.30;;
35961;SDS011;22044;48.298;10.008;2022-10-18T10:47:00;4.88;;;4.15;;
35961;SDS011;22044;48.298;10.008;2022-10-18T10:49:46;4.82;;;3.70;;
35961;SDS011;22044;48.298;10.008;2022-10-18T10:52:32;6.47;;;3.90;;
35961;SDS011;22044;48.298;10.008;2022-10-18T10:55:18;6.82;;;3.80;;
35961;SDS011;22044;48.298;10.008;2022-10-18T10:58:13;5.40;;;3.35;;
35961;SDS011;22044;48.298;10.008;2022-10-18T11:01:15;4.03;;;3.05;;
35961;SDS011;22044;48.298;10.008;2022-10-18T11:07:10;3.85;;;3.45;;
35961;SDS011;22044;48.298;10.008;2022-10-18T11:10:03;4.82;;;3.25;;
35961;SDS011;22044;48.298;10.008;2022-10-18T11:12:52;5.70;;;3.08;;
35961;SDS011;22044;48.298;10.008;2022-10-18T11:15:48;6.35;;;3.50;;
35961;SDS011;22044;48.298;10.008;2022-10-18T11:18:36;4.40;;;3.10;;
35961;SDS011;22044;48.298;10.008;2022-10-18T11:21:24;11.30;;;3.35;;
35961;SDS011;22044;48.298;10.008;2022-10-18T11:24:14;6.40;;;3.47;;
35961;SDS011;22044;48.298;10.008;2022-10-18T11:27:01;8.60;;;3.13;;
35961;SDS011;22044;48.298;10.008;2022-10-18T11:29:53;5.35;;;3.10;;
35961;SDS011;22044;48.298;10.008;2022-10-18T11:32:48;6.53;;;3.63;;
35961;SDS011;22044;48.298;10.008;2022-10-18T11:35:44;4.95;;;3.03;;
35961;SDS011;22044;48.298;10.008;2022-10-18T11:38:37;5.30;;;3.30;;
35961;SDS011;22044;48.298;10.008;2022-10-18T11:41:34;5.70;;;3.72;;
35961;SDS011;22044;48.298;10.008;2022-10-18T11:44:25;6.15;;;3.55;;
35961;SDS011;22044;48.298;10.008;2022-10-18T11:47:22;5.03;;;3.20;;
35961;SDS011;22044;48.298;10.008;2022-10-18T11:50:20;6.32;;;3.22;;
35961;SDS011;22044;48.298;10.008;2022-10-18T11:53:16;5.93;;;2.95;;
35961;SDS011;22044;48.298;10.008;2022-10-18T11:56:10;8.75;;;3.20;;
35961;SDS011;22044;48.298;10.008;2022-10-18T11:59:07;5.57;;;2.78;;
35961;SDS011;22044;48.298;10.008;2022-10-18T12:02:13;4.10;;;2.97;;
35961;SDS011;22044;48.298;10.008;2022-10-18T12:05:08;4.97;;;2.83;;
35961;SDS011;22044;48.298;10.008;2022-10-18T12:07:57;6.20;;;2.88;;
35961;SDS011;22044;48.298;10.008;2022-10-18T12:10:48;5.93;;;3.08;;
35961;SDS011;22044;48.298;10.008;2022-10-18T12:13:38;7.15;;;3.17;;
35961;SDS011;22044;48.298;10.008;2022-10-18T12:16:29;6.72;;;3.00;;
35961;SDS011;22044;48.298;10.008;2022-10-18T12:19:19;5.43;;;3.00;;
35961;SDS011;22044;48.298;10.008;2022-10-18T12:22:09;4.90;;;3.78;;
35961;SDS011;22044;48.298;10.008;2022-10-18T12:25:01;5.80;;;3.17;;
35961;SDS011;22044;48.298;10.008;2022-10-18T12:27:50;5.07;;;2.75;;
35961;SDS011;22044;48.298;10.008;2022-10-18T12:30:41;5.68;;;3.00;;
35961;SDS011;22044;48.298;10.008;2022-10-18T12:33:35;4.90;;;2.88;;
35961;SDS011;22044;48.298;10.008;2022-10-18T12:36:29;10.90;;;3.05;;
35961;SDS011;22044;48.298;10.008;2022-10-18T12:39:27;6.20;;;3.13;;
35961;SDS011;22044;48.298;10.008;2022-10-18T12:42:18;8.32;;;3.30;;
35961;SDS011;22044;48.298;10.008;2022-10-18T12:45:16;5.82;;;2.72;;
35961;SDS011;22044;48.298;10.008;2022-10-18T12:48:07;8.13;;;3.15;;
35961;SDS011;22044;48.298;10.008;2022-10-18T12:51:15;7.55;;;3.22;;
35961;SDS011;22044;48.298;10.008;2022-10-18T12:54:08;6.72;;;2.83;;
35961;SDS011;22044;48.298;10.008;2022-10-18T12:56:55;7.85;;;3.10;;
35961;SDS011;22044;48.298;10.008;2022-10-18T12:59:43;4.60;;;3.10;;
35961;SDS011;22044;48.298;10.008;2022-10-18T13:02:29;5.03;;;3.35;;
35961;SDS011;22044;48.298;10.008;2022-10-18T13:08:40;5.32;;;3.33;;
35961;SDS011;22044;48.298;10.008;2022-10-18T13:11:29;3.92;;;3.03;;
35961;SDS011;22044;48.298;10.008;2022-10-18T13:14:40;5.22;;;3.10;;
35961;SDS011;22044;48.298;10.008;2022-10-18T13:17:44;4.47;;;3.38;;
35961;SDS011;22044;48.298;10.008;2022-10-18T13:20:36;8.13;;;3.45;;
35961;SDS011;22044;48.298;10.008;2022-10-18T13:23:29;5.50;;;3.22;;
35961;SDS011;22044;48.298;10.008;2022-10-18T13:26:24;7.88;;;3.20;;
35961;SDS011;22044;48.298;10.008;2022-10-18T13:29:21;6.53;;;3.55;;
35961;SDS011;22044;48.298;10.008;2022-10-18T13:32:20;7.63;;;3.05;;
35961;SDS011;22044;48.298;10.008;2022-10-18T13:38:44;5.55;;;2.95;;
35961;SDS011;22044;48.298;10.008;2022-10-18T13:41:31;5.65;;;3.03;;
35961;SDS011;22044;48.298;10.008;2022-10-18T13:44:48;14.60;;;3.30;;
35961;SDS011;22044;48.298;10.008;2022-10-18T13:47:36;5.63;;;3.38;;
35961;SDS011;22044;48.298;10.008;2022-10-18T13:50:26;9.15;;;3.50;;
35961;SDS011;22044;48.298;10.008;2022-10-18T13:53:27;6.88;;;3.22;;
35961;SDS011;22044;48.298;10.008;2022-10-18T13:56:25;7.80;;;3.80;;
35961;SDS011;22044;48.298;10.008;2022-10-18T13:59:25;6.63;;;3.50;;
35961;SDS011;22044;48.298;10.008;2022-10-18T14:02:32;7.85;;;3.30;;
35961;SDS011;22044;48.298;10.008;2022-10-18T14:05:36;5.35;;;3.30;;
35961;SDS011;22044;48.298;10.008;2022-10-18T14:08:37;7.95;;;3.40;;
35961;SDS011;22044;48.298;10.008;2022-10-18T14:11:29;9.93;;;3.45;;
35961;SDS011;22044;48.298;10.008;2022-10-18T14:14:19;8.43;;;3.60;;
35961;SDS011;22044;48.298;10.008;2022-10-18T14:17:11;7.97;;;3.30;;
35961;SDS011;22044;48.298;10.008;2022-10-18T14:20:12;8.07;;;3.42;;
35961;SDS011;22044;48.298;10.008;2022-10-18T14:23:05;4.57;;;2.67;;
35961;SDS011;22044;48.298;10.008;2022-10-18T14:26:04;6.45;;;3.47;;
35961;SDS011;22044;48.298;10.008;2022-10-18T14:29:00;7.55;;;3.53;;
35961;SDS011;22044;48.298;10.008;2022-10-18T14:31:49;9.15;;;3.17;;
35961;SDS011;22044;48.298;10.008;2022-10-18T14:34:37;8.05;;;4.18;;
35961;SDS011;22044;48.298;10.008;2022-10-18T14:37:29;6.30;;;3.45;;
35961;SDS011;22044;48.298;10.008;2022-10-18T14:40:32;5.57;;;3.30;;
35961;SDS011;22044;48.298;10.008;2022-10-18T14:43:20;8.15;;;3.50;;
35961;SDS011;22044;48.298;10.008;2022-10-18T14:46:15;6.38;;;3.30;;
35961;SDS011;22044;48.298;10.008;2022-10-18T14:49:03;7.10;;;3.20;;
35961;SDS011;22044;48.298;10.008;2022-10-18T14:51:50;8.48;;;2.65;;
35961;SDS011;22044;48.298;10.008;2022-10-18T14:54:40;7.43;;;3.13;;
35961;SDS011;22044;48.298;10.008;2022-10-18T14:57:26;5.32;;;3.20;;
35961;SDS011;22044;48.298;10.008;2022-10-18T15:00:17;8.00;;;3.17;;
35961;SDS011;22044;48.298;10.008;2022-10-18T15:03:05;4.20;;;2.63;;
35961;SDS011;22044;48.298;10.008;2022-10-18T15:05:56;13.38;;;4.32;;
35961;SDS011;22044;48.298;10.008;2022-10-18T15:08:43;7.47;;;2.90;;
35961;SDS011;22044;48.298;10.008;2022-10-18T15:11:31;7.22;;;2.78;;
35961;SDS011;22044;48.298;10.008;2022-10-18T15:14:17;7.07;;;2.97;;
35961;SDS011;22044;48.298;10.008;2022-10-18T15:17:07;4.97;;;2.38;;
35961;SDS011;22044;48.298;10.008;2022-10-18T15:19:58;4.68;;;2.22;;
35961;SDS011;22044;48.298;10.008;2022-10-18T15:22:45;5.40;;;2.80;;
35961;SDS011;22044;48.298;10.008;2022-10-18T15:25:31;4.65;;;2.55;;
35961;SDS011;22044;48.298;10.008;2022-10-18T15:28:23;7.18;;;2.30;;
35961;SDS011;22044;48.298;10.008;2022-10-18T15:31:15;2.33;;;1.85;;
35961;SDS011;22044;48.298;10.008;2022-10-18T15:34:08;3.70;;;2.25;;
35961;SDS011;22044;48.298;10.008;2022-10-18T15:36:59;4.03;;;2.22;;
35961;SDS011;22044;48.298;10.008;2022-10-18T15:40:17;5.57;;;2.42;;
35961;SDS011;22044;48.298;10.008;2022-10-18T15:43:35;8.43;;;2.92;;
35961;SDS011;22044;48.298;10.008;2022-10-18T15:46:27;4.10;;;2.95;;
35961;SDS011;22044;48.298;10.008;2022-10-18T15:52:38;5.20;;;2.97;;
35961;SDS011;22044;48.298;10.008;2022-10-18T15:55:46;4.35;;;3.03;;
35961;SDS011;22044;48.298;10.008;2022-10-18T15:58:40;6.60;;;3.40;;
35961;SDS011;22044;48.298;10.008;2022-10-18T16:01:30;5.72;;;2.83;;
35961;SDS011;22044;48.298;10.008;2022-10-18T16:04:21;7.85;;;3.22;;
35961;SDS011;22044;48.298;10.008;2022-10-18T16:07:09;6.88;;;3.30;;
35961;SDS011;22044;48.298;10.008;2022-10-18T16:09:55;4.57;;;2.90;;
35961;SDS011;22044;48.298;10.008;2022-10-18T16:12:40;6.43;;;3.97;;
35961;SDS011;22044;48.298;10.008;2022-10-18T16:15:27;7.63;;;4.35;;
35961;SDS011;22044;48.298;10.008;2022-10-18T16:18:14;8.90;;;4.22;;
35961;SDS011;22044;48.298;10.008;2022-10-18T16:21:01;6.15;;;4.53;;
35961;SDS011;22044;48.298;10.008;2022-10-18T16:23:49;5.75;;;4.30;;
35961;SDS011;22044;48.298;10.008;2022-10-18T16:26:36;5.28;;;3.70;;
35961;SDS011;22044;48.298;10.008;2022-10-18T16:29:22;5.57;;;4.45;;
35961;SDS011;22044;48.298;10.008;2022-10-18T16:32:12;4.68;;;4.18;;
35961;SDS011;22044;48.298;10.008;2022-10-18T16:34:58;7.55;;;5.15;;
35961;SDS011;22044;48.298;10.008;2022-10-18T16:37:43;7.20;;;4.65;;
35961;SDS011;22044;48.298;10.008;2022-10-18T16:40:29;10.57;;;4.65;;
35961;SDS011;22044;48.298;10.008;2022-10-18T16:43:14;5.47;;;4.10;;
35961;SDS011;22044;48.298;10.008;2022-10-18T16:46:01;8.35;;;4.40;;
35961;SDS011;22044;48.298;10.008;2022-10-18T16:48:49;5.97;;;4.03;;
35961;SDS011;22044;48.298;10.008;2022-10-18T16:51:35;5.90;;;4.70;;
35961;SDS011;22044;48.298;10.008;2022-10-18T16:54:20;7.72;;;4.88;;